Time,TemperatureF,DewpointF,PressureIn,WindDirection,WindDirectionDegrees,WindSpeedMPH,WindSpeedGustMPH,Humidity,HourlyPrecipIn,Conditions,Clouds,dailyrainin,SoftwareType,DateUTC
2013-08-04 00:04:00,62.6,55.0,29.90,SE,143,5.0,8.0,77,0.00,,,0.64,weatherlink.com 1.10,2013-08-04 06:04:00,
2013-08-04 00:19:00,62.3,55.0,29.90,SW,219,6.0,10.0,77,0.00,,,0.00,weatherlink.com 1.10,2013-08-04 06:19:00,
2013-08-04 00:34:00,62.6,55.0,29.89,SSE,167,0.0,5.0,75,0.00,,,0.00,weatherlink.com 1.10,2013-08-04 06:34:00,
2013-08-04 00:49:00,61.8,55.0,29.87,SE,140,1.0,3.0,77,0.00,,,0.00,weatherlink.com 1.10,2013-08-04 06:49:00,
2013-08-04 01:04:00,61.5,55.0,29.86,SSE,148,0.0,2.0,78,0.00,,,0.00,weatherlink.com 1.10,2013-08-04 07:04:00,
2013-08-04 01:19:00,61.6,54.0,29.85,SE,138,0.0,2.0,77,0.00,,,0.00,weatherlink.com 1.10,2013-08-04 07:19:00,
2013-08-04 01:34:00,62.2,54.0,29.84,SE,145,0.0,3.0,75,0.00,,,0.00,weatherlink.com 1.10,2013-08-04 07:34:00,
2013-08-04 01:49:00,61.3,54.0,29.83,SE,145,0.0,0.0,76,0.00,,,0.00,weatherlink.com 1.10,2013-08-04 07:49:00,
2013-08-04 02:04:00,60.0,54.0,29.83,SE,145,0.0,0.0,81,0.00,,,0.00,weatherlink.com 1.10,2013-08-04 08:04:00,
2013-08-04 02:19:00,59.1,54.0,29.84,ENE,73,1.0,1.0,83,0.00,,,0.00,weatherlink.com 1.10,2013-08-04 08:19:00,
2013-08-04 02:34:00,58.2,54.0,29.84,NE,38,0.0,2.0,86,0.00,,,0.00,weatherlink.com 1.10,2013-08-04 08:34:00,
2013-08-04 02:49:00,57.5,54.0,29.84,NE,39,0.0,1.0,87,0.00,,,0.00,weatherlink.com 1.10,2013-08-04 08:49:00,
2013-08-04 03:04:00,56.9,53.0,29.84,NE,38,0.0,1.0,88,0.00,,,0.00,weatherlink.com 1.10,2013-08-04 09:04:00,
2013-08-04 03:19:00,56.8,54.0,29.83,NE,37,0.0,1.0,89,0.00,,,0.00,weatherlink.com 1.10,2013-08-04 09:19:00,
2013-08-04 03:34:00,56.7,54.0,29.83,NE,37,0.0,0.0,89,0.00,,,0.00,weatherlink.com 1.10,2013-08-04 09:34:00,
2013-08-04 03:49:00,56.8,54.0,29.82,NE,37,0.0,0.0,89,0.00,,,0.00,weatherlink.com 1.10,2013-08-04 09:49:00,
2013-08-04 04:04:00,56.4,53.0,29.82,NE,37,0.0,0.0,89,0.00,,,0.00,weatherlink.com 1.10,2013-08-04 10:04:00,
2013-08-04 04:19:00,56.1,53.0,29.83,NE,37,0.0,1.0,89,0.00,,,0.00,weatherlink.com 1.10,2013-08-04 10:19:00,
2013-08-04 04:34:00,55.6,53.0,29.83,NE,34,0.0,1.0,90,0.00,,,0.00,weatherlink.com 1.10,2013-08-04 10:34:00,
2013-08-04 04:50:00,55.2,53.0,29.82,NE,34,0.0,0.0,91,0.00,,,0.00,weatherlink.com 1.10,2013-08-04 10:50:00,
2013-08-04 05:04:00,55.1,53.0,29.83,NE,34,0.0,0.0,92,0.00,,,0.00,weatherlink.com 1.10,2013-08-04 11:04:00,
2013-08-04 05:20:00,55.1,53.0,29.83,NE,34,0.0,0.0,92,0.00,,,0.00,weatherlink.com 1.10,2013-08-04 11:20:00,
2013-08-04 05:35:00,55.2,53.0,29.84,NE,38,1.0,2.0,92,0.00,,,0.00,weatherlink.com 1.10,2013-08-04 11:35:00,
2013-08-04 05:50:00,55.1,53.0,29.84,NE,38,0.0,3.0,92,0.00,,,0.00,weatherlink.com 1.10,2013-08-04 11:50:00,
2013-08-04 06:05:00,55.1,53.0,29.85,South,187,0.0,2.0,93,0.00,,,0.00,weatherlink.com 1.10,2013-08-04 12:05:00,
2013-08-04 06:20:00,55.1,53.0,29.86,East,84,0.0,1.0,93,0.00,,,0.00,weatherlink.com 1.10,2013-08-04 12:20:00,
2013-08-04 06:34:00,55.3,54.0,29.86,NE,38,0.0,1.0,94,0.00,,,0.00,weatherlink.com 1.10,2013-08-04 12:34:00,
2013-08-04 06:50:00,56.0,55.0,29.86,NNE,33,1.0,1.0,95,0.00,,,0.00,weatherlink.com 1.10,2013-08-04 12:50:00,
2013-08-04 07:05:00,56.8,55.0,29.87,NNE,16,0.0,1.0,95,0.00,,,0.00,weatherlink.com 1.10,2013-08-04 13:05:00,
2013-08-04 07:20:00,57.7,56.0,29.87,SE,134,0.0,0.0,95,0.00,,,0.00,weatherlink.com 1.10,2013-08-04 13:20:00,
2013-08-04 07:35:00,58.9,58.0,29.87,SE,145,0.0,0.0,96,0.01,,,0.01,weatherlink.com 1.10,2013-08-04 13:35:00,
2013-08-04 07:50:00,59.7,58.0,29.87,SSE,163,0.0,2.0,95,0.01,,,0.01,weatherlink.com 1.10,2013-08-04 13:50:00,
2013-08-04 08:05:00,60.3,59.0,29.88,SE,135,0.0,3.0,95,0.01,,,0.01,weatherlink.com 1.10,2013-08-04 14:05:00,
2013-08-04 08:19:00,60.5,59.0,29.88,ESE,115,0.0,3.0,95,0.01,,,0.01,weatherlink.com 1.10,2013-08-04 14:19:00,
2013-08-04 08:35:00,60.7,59.0,29.88,NE,44,0.0,2.0,95,0.00,,,0.01,weatherlink.com 1.10,2013-08-04 14:35:00,
2013-08-04 08:50:00,61.2,60.0,29.88,SE,139,1.0,2.0,95,0.00,,,0.01,weatherlink.com 1.10,2013-08-04 14:50:00,
2013-08-04 09:04:00,62.2,61.0,29.88,SE,128,0.0,1.0,95,0.00,,,0.01,weatherlink.com 1.10,2013-08-04 15:04:00,
2013-08-04 09:20:00,63.9,62.0,29.88,NE,35,0.0,2.0,93,0.00,,,0.01,weatherlink.com 1.10,2013-08-04 15:20:00,
2013-08-04 09:35:00,64.8,62.0,29.87,NE,39,2.0,2.0,90,0.00,,,0.01,weatherlink.com 1.10,2013-08-04 15:35:00,
2013-08-04 09:50:00,65.3,62.0,29.87,SW,221,0.0,1.0,88,0.00,,,0.01,weatherlink.com 1.10,2013-08-04 15:50:00,
2013-08-04 10:05:00,66.4,62.0,29.88,NE,37,0.0,2.0,85,0.00,,,0.01,weatherlink.com 1.10,2013-08-04 16:05:00,
2013-08-04 10:20:00,67.5,63.0,29.88,SSE,153,0.0,3.0,85,0.00,,,0.01,weatherlink.com 1.10,2013-08-04 16:20:00,
2013-08-04 10:35:00,70.1,64.0,29.87,SE,138,0.0,1.0,81,0.00,,,0.01,weatherlink.com 1.10,2013-08-04 16:35:00,
2013-08-04 10:50:00,71.6,64.0,29.87,SE,141,0.0,4.0,76,0.00,,,0.01,weatherlink.com 1.10,2013-08-04 16:50:00,
2013-08-04 11:05:00,72.6,64.0,29.86,SE,126,0.0,3.0,75,0.00,,,0.01,weatherlink.com 1.10,2013-08-04 17:05:00,
2013-08-04 11:20:00,74.2,66.0,29.86,SE,134,0.0,2.0,75,0.00,,,0.01,weatherlink.com 1.10,2013-08-04 17:20:00,
2013-08-04 11:35:00,75.2,64.0,29.86,SW,222,1.0,4.0,69,0.00,,,0.01,weatherlink.com 1.10,2013-08-04 17:35:00,
2013-08-04 11:50:00,75.6,65.0,29.85,South,170,0.0,6.0,70,0.00,,,0.01,weatherlink.com 1.10,2013-08-04 17:50:00,
2013-08-04 12:05:00,76.1,66.0,29.85,SSE,156,1.0,6.0,70,0.00,,,0.01,weatherlink.com 1.10,2013-08-04 18:05:00,
2013-08-04 12:20:00,76.3,65.0,29.84,SW,222,4.0,7.0,67,0.00,,,0.01,weatherlink.com 1.10,2013-08-04 18:20:00,
2013-08-04 12:35:00,76.5,65.0,29.84,SE,141,0.0,8.0,67,0.00,,,0.01,weatherlink.com 1.10,2013-08-04 18:35:00,
2013-08-04 12:50:00,76.5,65.0,29.84,SW,218,3.0,6.0,67,0.00,,,0.01,weatherlink.com 1.10,2013-08-04 18:50:00,
2013-08-04 13:05:00,78.0,65.0,29.84,South,183,4.0,5.0,65,0.00,,,0.01,weatherlink.com 1.10,2013-08-04 19:05:00,
2013-08-04 13:21:00,78.3,64.0,29.83,SW,235,2.0,6.0,61,0.00,,,0.01,weatherlink.com 1.10,2013-08-04 19:21:00,
2013-08-04 13:36:00,78.5,64.0,29.83,SW,226,1.0,5.0,61,0.00,,,0.01,weatherlink.com 1.10,2013-08-04 19:36:00,
2013-08-04 13:51:00,79.2,63.0,29.83,West,262,1.0,7.0,58,0.00,,,0.01,weatherlink.com 1.10,2013-08-04 19:51:00,
2013-08-04 14:06:00,78.1,63.0,29.83,SW,218,3.0,5.0,61,0.00,,,0.01,weatherlink.com 1.10,2013-08-04 20:06:00,
2013-08-04 14:21:00,78.3,64.0,29.84,West,267,3.0,4.0,62,0.00,,,0.01,weatherlink.com 1.10,2013-08-04 20:21:00,
2013-08-04 14:36:00,79.0,65.0,29.84,WNW,284,1.0,6.0,62,0.00,,,0.01,weatherlink.com 1.10,2013-08-04 20:36:00,
2013-08-04 14:51:00,80.3,66.0,29.84,NE,39,0.0,1.0,61,0.00,,,0.01,weatherlink.com 1.10,2013-08-04 20:51:00,
2013-08-04 15:06:00,81.9,62.0,29.83,NE,42,0.0,0.0,51,0.00,,,0.01,weatherlink.com 1.10,2013-08-04 21:06:00,
2013-08-04 15:21:00,83.7,57.0,29.82,NNE,27,0.0,0.0,40,0.00,,,0.01,weatherlink.com 1.10,2013-08-04 21:21:00,
2013-08-04 15:36:00,83.7,62.0,29.82,East,93,0.0,0.0,48,0.00,,,0.01,weatherlink.com 1.10,2013-08-04 21:36:00,
2013-08-04 15:51:00,85.6,61.0,29.82,East,96,0.0,0.0,43,0.00,,,0.01,weatherlink.com 1.10,2013-08-04 21:51:00,
2013-08-04 16:06:00,82.7,61.0,29.84,North,354,0.0,1.0,48,0.00,,,0.01,weatherlink.com 1.10,2013-08-04 22:06:00,
2013-08-04 16:21:00,82.0,59.0,29.84,ENE,65,2.0,9.0,45,0.00,,,0.01,weatherlink.com 1.10,2013-08-04 22:21:00,
2013-08-04 16:36:00,82.0,58.0,29.84,NE,48,2.0,8.0,44,0.00,,,0.01,weatherlink.com 1.10,2013-08-04 22:36:00,
2013-08-04 17:06:00,80.5,57.0,29.82,NE,39,1.0,4.0,44,0.00,,,0.01,weatherlink.com 1.10,2013-08-04 23:06:00,
2013-08-04 17:21:00,79.5,60.0,29.82,NE,38,0.0,2.0,51,0.00,,,0.01,weatherlink.com 1.10,2013-08-04 23:21:00,
2013-08-04 17:36:00,79.8,57.0,29.82,NE,37,0.0,0.0,46,0.00,,,0.01,weatherlink.com 1.10,2013-08-04 23:36:00,
2013-08-04 17:51:00,81.3,56.0,29.82,West,277,0.0,0.0,42,0.00,,,0.01,weatherlink.com 1.10,2013-08-04 23:51:00,
2013-08-04 18:06:00,85.8,57.0,29.82,NNW,346,2.0,2.0,37,0.00,,,0.01,weatherlink.com 1.10,2013-08-05 00:06:00,
2013-08-04 18:36:00,79.0,62.0,29.82,North,10,1.0,3.0,56,0.00,,,0.01,weatherlink.com 1.10,2013-08-05 00:36:00,
2013-08-04 18:51:00,77.5,61.0,29.82,North,10,0.0,1.0,57,0.00,,,0.01,weatherlink.com 1.10,2013-08-05 00:51:00,
2013-08-04 19:06:00,76.6,63.0,29.82,North,10,0.0,1.0,62,0.00,,,0.01,weatherlink.com 1.10,2013-08-05 01:06:00,
2013-08-04 19:21:00,75.8,60.0,29.81,NNE,23,0.0,0.0,59,0.00,,,0.01,weatherlink.com 1.10,2013-08-05 01:21:00,
2013-08-04 19:36:00,75.5,59.0,29.80,NNE,23,0.0,0.0,56,0.00,,,0.01,weatherlink.com 1.10,2013-08-05 01:36:00,
2013-08-04 19:51:00,76.4,59.0,29.79,SE,143,0.0,3.0,55,0.00,,,0.01,weatherlink.com 1.10,2013-08-05 01:51:00,
2013-08-04 20:06:00,75.2,60.0,29.80,SW,232,0.0,2.0,60,0.00,,,0.01,weatherlink.com 1.10,2013-08-05 02:06:00,
2013-08-04 20:21:00,73.7,55.0,29.80,NE,46,0.0,3.0,53,0.00,,,0.01,weatherlink.com 1.10,2013-08-05 02:21:00,
2013-08-04 20:36:00,73.2,57.0,29.80,WSW,249,0.0,2.0,57,0.00,,,0.01,weatherlink.com 1.10,2013-08-05 02:36:00,
2013-08-04 20:51:00,72.3,57.0,29.81,WSW,249,0.0,1.0,58,0.00,,,0.01,weatherlink.com 1.10,2013-08-05 02:51:00,
2013-08-04 21:06:00,71.6,59.0,29.81,WSW,249,0.0,0.0,65,0.00,,,0.01,weatherlink.com 1.10,2013-08-05 03:06:00,
2013-08-04 21:21:00,71.8,59.0,29.82,SSE,149,0.0,1.0,64,0.00,,,0.01,weatherlink.com 1.10,2013-08-05 03:21:00,
2013-08-04 21:51:00,71.9,60.0,29.84,SE,133,5.0,8.0,66,0.00,,,0.01,weatherlink.com 1.10,2013-08-05 03:51:00,
2013-08-04 22:06:00,72.3,58.0,29.82,South,169,5.0,11.0,61,0.00,,,0.01,weatherlink.com 1.10,2013-08-05 04:06:00,
2013-08-04 22:21:00,71.9,59.0,29.81,SSE,165,4.0,12.0,63,0.00,,,0.01,weatherlink.com 1.10,2013-08-05 04:21:00,
2013-08-04 22:36:00,71.0,59.0,29.81,SSE,166,6.0,9.0,65,0.00,,,0.01,weatherlink.com 1.10,2013-08-05 04:36:00,
2013-08-04 22:51:00,70.5,58.0,29.81,SE,144,4.0,8.0,64,0.00,,,0.01,weatherlink.com 1.10,2013-08-05 04:51:00,
2013-08-04 23:22:00,70.0,57.0,29.79,SW,234,6.0,9.0,63,0.00,,,0.01,weatherlink.com 1.10,2013-08-05 05:22:00,
2013-08-04 23:36:00,68.9,56.0,29.79,South,189,3.0,5.0,64,0.00,,,0.01,weatherlink.com 1.10,2013-08-05 05:36:00,
2013-08-04 23:51:00,67.5,56.0,29.78,SW,230,2.0,4.0,66,0.00,,,0.01,weatherlink.com 1.10,2013-08-05 05:51:00,